| time (UTC) | temp F | wind direction | speed knots | gust knots | rain 1hr in | rain 24hr in | rain mn in | humidity % | barometer mb |
| 20260510213026 | 94 | 347 | 1.7 | 0.0 | 0.00 | 0.00 | 0.00 | 16 | 1003.5 |
| 20260510211527 | 95 | 347 | 2.6 | 0.0 | 0.00 | 0.00 | 0.00 | 16 | 1003.7 |
| 20260510210024 | 95 | 346 | 1.7 | 0.0 | 0.00 | 0.00 | 0.00 | 15 | 1003.8 |
| 20260510204525 | 95 | 330 | 4.3 | 0.0 | 0.00 | 0.00 | 0.00 | 15 | 1004.0 |
| 20260510203021 | 95 | 300 | 0.0 | 0.0 | 0.00 | 0.00 | 0.00 | 16 | 1004.3 |
| 20260510201519 | 95 | 300 | 0.9 | 0.0 | 0.00 | 0.00 | 0.00 | 15 | 1004.6 |
| 20260510200017 | 93 | 294 | 1.7 | 0.0 | 0.00 | 0.00 | 0.00 | 14 | 1005.0 |
| 20260510194522 | 93 | 290 | 2.6 | 0.0 | 0.00 | 0.00 | 0.00 | 15 | 1005.1 |
| 20260510193014 | 93 | 274 | 1.7 | 0.0 | 0.00 | 0.00 | 0.00 | 18 | 1005.3 |
| 20260510191510 | 92 | 273 | 0.9 | 0.0 | 0.00 | 0.00 | 0.00 | 19 | 1005.5 |
| 20260510190013 | 92 | 273 | 0.9 | 0.0 | 0.00 | 0.00 | 0.00 | 18 | 1005.7 |
| 20260510184521 | 92 | 255 | 0.9 | 0.0 | 0.00 | 0.00 | 0.00 | 18 | 1005.9 |
| 20260510183007 | 90 | 255 | 0.9 | 0.0 | 0.00 | 0.00 | 0.00 | 19 | 1006.1 |
| 20260510181506 | 88 | 255 | 0.9 | 0.0 | 0.00 | 0.00 | 0.00 | 20 | 1006.2 |
| 20260510180002 | 88 | 257 | 0.9 | 0.0 | 0.00 | 0.00 | 0.00 | 19 | 1006.4 |
| 20260510174559 | 87 | 258 | 1.7 | 0.0 | 0.00 | 0.00 | 0.00 | 19 | 1006.5 |
| 20260510173102 | 87 | 258 | 0.0 | 0.0 | 0.00 | 0.00 | 0.00 | 20 | 1006.5 |
| 20260510171525 | 86 | 258 | 0.9 | 0.0 | 0.00 | 0.00 | 0.00 | 20 | 1006.7 |
| 20260510170023 | 84 | 258 | 0.9 | 0.0 | 0.00 | 0.00 | 0.00 | 22 | 1006.8 |
| 20260510164517 | 84 | 258 | 0.0 | 0.0 | 0.00 | 0.00 | 0.00 | 23 | 1006.9 |
| 20260510163014 | 82 | 258 | 0.9 | 0.0 | 0.00 | 0.00 | 0.00 | 24 | 1006.8 |
| 20260510161511 | 81 | 260 | 0.9 | 0.0 | 0.00 | 0.00 | 0.00 | 28 | 1006.6 |
| 20260510160009 | 79 | 265 | 0.9 | 0.0 | 0.00 | 0.00 | 0.00 | 37 | 1006.7 |
| 20260510154507 | 78 | 265 | 0.9 | 0.0 | 0.00 | 0.00 | 0.00 | 40 | 1006.9 |
| 20260510153005 | 78 | 267 | 0.9 | 0.0 | 0.00 | 0.00 | 0.00 | 42 | 1006.8 |
| 20260510151502 | 77 | 270 | 0.0 | 0.0 | 0.00 | 0.00 | 0.00 | 45 | 1006.4 |
| 20260510150002 | 74 | 271 | 0.0 | 0.0 | 0.00 | 0.00 | 0.00 | 50 | 1006.5 |
| 20260510144558 | 73 | 267 | 1.7 | 0.0 | 0.00 | 0.00 | 0.00 | 53 | 1006.8 |
| 20260510143057 | 70 | 269 | 1.7 | 0.0 | 0.00 | 0.00 | 0.00 | 57 | 1006.8 |
| 20260510141557 | 69 | 267 | 1.7 | 0.0 | 0.00 | 0.00 | 0.00 | 58 | 1007.0 |
| 20260510140057 | 67 | 284 | 0.0 | 0.0 | 0.00 | 0.00 | 0.00 | 59 | 1006.6 |
| 20260510134551 | 66 | 284 | 0.0 | 0.0 | 0.00 | 0.00 | 0.00 | 59 | 1006.5 |
| 20260510133047 | 65 | 284 | 1.7 | 0.0 | 0.00 | 0.00 | 0.00 | 59 | 1006.5 |
| 20260510131544 | 65 | 293 | 0.9 | 0.0 | 0.00 | 0.00 | 0.00 | 58 | 1006.2 |
| 20260510130043 | 64 | 294 | 0.0 | 0.0 | 0.00 | 0.00 | 0.00 | 55 | 1006.0 |
| 20260510124542 | 64 | 294 | 0.9 | 0.0 | 0.00 | 0.00 | 0.00 | 51 | 1005.7 |
| 20260510123034 | 64 | 299 | 0.0 | 0.0 | 0.00 | 0.00 | 0.00 | 1005.4 | |
| 20260510121530 | 0 | 0.0 | 0.0 | 0.00 | 0.00 | 0.00 | 1005.3 | ||
| 20260510120025 | 0 | 0.0 | 0.0 | 0.00 | 0.00 | 0.00 | 1004.9 | ||
| 20260510114552 | 0 | 0.0 | 0.0 | 0.00 | 0.00 | 0.00 | 1004.9 | ||
| 20260510113047 | 67 | 26 | 0.0 | 0.0 | 0.00 | 0.00 | 0.00 | 31 | 1004.8 |
| 20260510111602 | 67 | 26 | 0.0 | 0.0 | 0.00 | 0.00 | 0.00 | 26 | 1004.6 |
| 20260510110039 | 67 | 26 | 0.0 | 0.0 | 0.00 | 0.00 | 0.00 | 26 | 1004.4 |
| 20260510104534 | 66 | 26 | 0.0 | 0.0 | 0.00 | 0.00 | 0.00 | 27 | 1004.2 |
| 20260510103035 | 67 | 26 | 0.0 | 0.0 | 0.00 | 0.00 | 0.00 | 27 | 1004.0 |
| 20260510101600 | 67 | 26 | 0.0 | 0.0 | 0.00 | 0.00 | 0.00 | 27 | 1003.8 |
| 20260510100059 | 68 | 26 | 0.0 | 0.0 | 0.00 | 0.00 | 0.00 | 26 | 1003.7 |
| 20260510094555 | 68 | 26 | 0.0 | 0.0 | 0.00 | 0.00 | 0.00 | 25 | 1003.6 |
| 20260510093103 | 69 | 26 | 0.0 | 0.0 | 0.00 | 0.00 | 0.00 | 23 | 1003.5 |
| 20260510091551 | 70 | 26 | 0.0 | 0.0 | 0.00 | 0.00 | 0.00 | 23 | 1003.4 |
| 20260510090056 | 70 | 26 | 0.0 | 0.0 | 0.00 | 0.00 | 0.00 | 21 | 1003.4 |
| 20260510084543 | 71 | 26 | 0.0 | 0.0 | 0.00 | 0.00 | 0.00 | 21 | 1003.5 |
| 20260510083050 | 71 | 26 | 0.0 | 0.0 | 0.00 | 0.00 | 0.00 | 21 | 1003.5 |
| 20260510081550 | 71 | 26 | 0.0 | 0.0 | 0.00 | 0.00 | 0.00 | 21 | 1003.6 |
| 20260510080044 | 72 | 26 | 0.0 | 0.0 | 0.00 | 0.00 | 0.00 | 20 | 1003.6 |
| 20260510074534 | 73 | 26 | 0.0 | 0.0 | 0.00 | 0.00 | 0.00 | 19 | 1003.7 |
| 20260510073032 | 73 | 27 | 0.9 | 0.0 | 0.00 | 0.00 | 0.00 | 20 | 1003.7 |
| 20260510071528 | 75 | 22 | 0.0 | 0.0 | 0.00 | 0.00 | 0.00 | 19 | 1003.6 |
| 20260510070028 | 76 | 22 | 0.0 | 0.0 | 0.00 | 0.00 | 0.00 | 18 | 1003.7 |
| 20260510064529 | 76 | 22 | 0.0 | 0.0 | 0.00 | 0.00 | 0.00 | 18 | 1003.6 |
| 20260510063022 | 76 | 22 | 0.0 | 0.0 | 0.00 | 0.00 | 0.00 | 18 | 1003.8 |
| 20260510061621 | 75 | 22 | 0.0 | 0.0 | 0.00 | 0.00 | 0.00 | 20 | 1003.8 |
| 20260510060020 | 76 | 22 | 0.0 | 0.0 | 0.00 | 0.00 | 0.00 | 19 | 1003.9 |
| 20260510054521 | 77 | 22 | 0.0 | 0.0 | 0.00 | 0.00 | 0.00 | 19 | 1004.0 |
| 20260510053013 | 77 | 22 | 0.0 | 0.0 | 0.00 | 0.00 | 0.00 | 18 | 1003.9 |
| 20260510051511 | 77 | 22 | 0.0 | 0.0 | 0.00 | 0.00 | 0.00 | 17 | 1003.7 |
| 20260510050010 | 77 | 22 | 0.0 | 0.0 | 0.00 | 0.00 | 0.00 | 16 | 1003.8 |
| 20260510044507 | 78 | 22 | 0.0 | 0.0 | 0.00 | 0.00 | 0.00 | 17 | 1003.5 |
| 20260510043003 | 78 | 22 | 0.0 | 0.0 | 0.00 | 0.00 | 0.00 | 16 | 1003.4 |
| 20260510041500 | 79 | 22 | 0.0 | 0.0 | 0.00 | 0.00 | 0.00 | 15 | 1003.2 |
| 20260510040057 | 80 | 22 | 0.0 | 0.0 | 0.00 | 0.00 | 0.00 | 14 | 1003.0 |
| 20260510034555 | 80 | 22 | 0.0 | 0.0 | 0.00 | 0.00 | 0.00 | 13 | 1002.8 |
| 20260510033053 | 80 | 22 | 0.0 | 0.0 | 0.00 | 0.00 | 0.00 | 14 | 1002.7 |
| 20260510031547 | 82 | 22 | 0.0 | 0.0 | 0.00 | 0.00 | 0.00 | 13 | 1002.4 |
| 20260510030043 | 83 | 22 | 0.0 | 0.0 | 0.00 | 0.00 | 0.00 | 12 | 1002.3 |
| 20260510024540 | 84 | 22 | 0.0 | 0.0 | 0.00 | 0.00 | 0.00 | 11 | 1002.0 |
| 20260510023036 | 84 | 22 | 0.0 | 0.0 | 0.00 | 0.00 | 0.00 | 11 | 1001.9 |
| 20260510021534 | 85 | 22 | 0.0 | 0.0 | 0.00 | 0.00 | 0.00 | 11 | 1001.8 |
| 20260510020030 | 86 | 22 | 0.0 | 0.0 | 0.00 | 0.00 | 0.00 | 10 | 1001.5 |
| 20260510014528 | 87 | 22 | 0.0 | 0.0 | 0.00 | 0.00 | 0.00 | 9 | 1001.4 |
| 20260510013024 | 88 | 22 | 0.0 | 0.0 | 0.00 | 0.00 | 0.00 | 9 | 1001.2 |
| 20260510011517 | 89 | 22 | 0.0 | 0.0 | 0.00 | 0.00 | 0.00 | 9 | 1001.1 |
| 20260510010017 | 89 | 22 | 0.0 | 0.0 | 0.00 | 0.00 | 0.00 | 8 | 1000.9 |
| 20260510004512 | 90 | 22 | 0.9 | 0.0 | 0.00 | 0.00 | 0.00 | 9 | 1000.9 |
| 20260510003020 | 90 | 22 | 0.0 | 0.0 | 0.00 | 0.00 | 0.00 | 8 | 1000.7 |
| 20260510001508 | 90 | 22 | 2.6 | 0.0 | 0.00 | 0.00 | 0.00 | 8 | 1000.9 |
| 20260510000005 | 91 | 76 | 1.7 | 0.0 | 0.00 | 0.00 | 0.00 | 9 | 1000.8 |
| 20260509234505 | 92 | 336 | 0.9 | 0.0 | 0.00 | 0.00 | 0.00 | 9 | 1000.7 |
| 20260509233044 | 91 | 5 | 2.6 | 0.0 | 0.00 | 0.00 | 0.00 | 9 | 1000.7 |
| 20260509231531 | 92 | 313 | 0.9 | 0.0 | 0.00 | 0.00 | 0.00 | 9 | 1000.7 |
| 20260509230026 | 91 | 59 | 0.9 | 0.0 | 0.00 | 0.00 | 0.00 | 9 | 1000.8 |
| 20260509224527 | 91 | 19 | 1.7 | 0.0 | 0.00 | 0.00 | 0.00 | 9 | 1000.9 |
| 20260509223023 | 92 | 48 | 0.9 | 0.0 | 0.00 | 0.00 | 0.00 | 9 | 1001.2 |
| 20260509221521 | 91 | 326 | 3.5 | 0.0 | 0.00 | 0.00 | 0.00 | 9 | 1001.4 |
| 20260509220017 | 90 | 33 | 4.3 | 0.0 | 0.00 | 0.00 | 0.00 | 9 | 1001.5 |
| 20260509214516 | 92 | 34 | 1.7 | 0.0 | 0.00 | 0.00 | 0.00 | 10 | 1001.7 |